Terminal Aerodrome Forecast
Issued by NWS

Home | Current Version | Previous Version | Graphics & Text | Print | Product List | Glossary On
Versions: 1 2 3 4 5 6 7 8 9 10 11 12 13 14 15 16 17 18 19 20 21
000
FTUS43 KGRB 250525
TAFRHI
TAF
KRHI 250525Z 2506/2606 VRB03KT 2SM BR SCT002 SCT110
      TEMPO 2507/2511 1/2SM FG BKN002
     FM251500 11008KT P6SM SCT018 BKN200
     FM252100 12009KT P6SM SCT025 OVC045 PROB30 2522/2601 5SM -TSRA
      OVC025CB
     FM260100 13005KT 3SM BR SCT005 OVC010
      TEMPO 2602/2606 2SM -SHRA BR BKN005=

USA.gov is the U.S. government's official web portal to all federal, state and local government web resources and services.